sensor_id;sensor_type;location;lat;lon;timestamp;P1;durP1;ratioP1;P2;durP2;ratioP2
65636;SDS011;52327;42.622;23.316;2023-12-22T00:01:31;2.15;;;1.33;;
65636;SDS011;52327;42.622;23.316;2023-12-22T00:03:56;3.08;;;2.10;;
65636;SDS011;52327;42.622;23.316;2023-12-22T00:06:22;6.10;;;3.08;;
65636;SDS011;52327;42.622;23.316;2023-12-22T00:08:47;1.77;;;1.35;;
65636;SDS011;52327;42.622;23.316;2023-12-22T00:11:13;6.60;;;2.13;;
65636;SDS011;52327;42.622;23.316;2023-12-22T00:13:39;1.70;;;0.98;;
65636;SDS011;52327;42.622;23.316;2023-12-22T00:16:07;1.10;;;1.00;;
65636;SDS011;52327;42.622;23.316;2023-12-22T00:18:33;2.45;;;1.75;;
65636;SDS011;52327;42.622;23.316;2023-12-22T00:20:58;1.48;;;0.90;;
65636;SDS011;52327;42.622;23.316;2023-12-22T00:23:23;2.58;;;1.73;;
65636;SDS011;52327;42.622;23.316;2023-12-22T00:25:49;1.65;;;1.30;;
65636;SDS011;52327;42.622;23.316;2023-12-22T00:28:14;2.83;;;1.65;;
65636;SDS011;52327;42.622;23.316;2023-12-22T00:30:43;3.60;;;1.25;;
65636;SDS011;52327;42.622;23.316;2023-12-22T00:33:12;2.83;;;1.88;;
65636;SDS011;52327;42.622;23.316;2023-12-22T00:35:37;0.80;;;0.80;;
65636;SDS011;52327;42.622;23.316;2023-12-22T00:38:06;0.65;;;0.65;;
65636;SDS011;52327;42.622;23.316;2023-12-22T00:40:32;1.67;;;1.58;;
65636;SDS011;52327;42.622;23.316;2023-12-22T00:43:07;2.22;;;1.00;;
65636;SDS011;52327;42.622;23.316;2023-12-22T00:45:32;3.28;;;1.45;;
65636;SDS011;52327;42.622;23.316;2023-12-22T00:48:01;2.95;;;2.35;;
65636;SDS011;52327;42.622;23.316;2023-12-22T00:50:30;1.30;;;1.20;;
65636;SDS011;52327;42.622;23.316;2023-12-22T00:53:04;2.35;;;2.15;;
65636;SDS011;52327;42.622;23.316;2023-12-22T00:55:30;0.60;;;0.60;;
65636;SDS011;52327;42.622;23.316;2023-12-22T00:58:08;0.88;;;0.85;;
65636;SDS011;52327;42.622;23.316;2023-12-22T01:00:34;1.60;;;1.13;;
65636;SDS011;52327;42.622;23.316;2023-12-22T01:03:18;1.10;;;1.08;;
65636;SDS011;52327;42.622;23.316;2023-12-22T01:08:42;1.33;;;1.23;;
65636;SDS011;52327;42.622;23.316;2023-12-22T01:11:23;2.58;;;2.00;;
65636;SDS011;52327;42.622;23.316;2023-12-22T01:13:54;3.20;;;1.50;;
65636;SDS011;52327;42.622;23.316;2023-12-22T01:16:41;2.60;;;1.58;;
65636;SDS011;52327;42.622;23.316;2023-12-22T01:19:25;1.95;;;1.83;;
65636;SDS011;52327;42.622;23.316;2023-12-22T01:21:57;3.70;;;1.83;;
65636;SDS011;52327;42.622;23.316;2023-12-22T01:24:28;1.23;;;1.15;;
65636;SDS011;52327;42.622;23.316;2023-12-22T01:26:54;2.92;;;1.88;;
65636;SDS011;52327;42.622;23.316;2023-12-22T01:29:27;1.08;;;1.08;;
65636;SDS011;52327;42.622;23.316;2023-12-22T01:31:52;1.98;;;1.83;;
65636;SDS011;52327;42.622;23.316;2023-12-22T01:34:21;2.25;;;1.65;;
65636;SDS011;52327;42.622;23.316;2023-12-22T01:36:59;4.70;;;2.05;;
65636;SDS011;52327;42.622;23.316;2023-12-22T01:39:25;1.85;;;1.02;;
65636;SDS011;52327;42.622;23.316;2023-12-22T01:42:02;2.97;;;2.23;;
65636;SDS011;52327;42.622;23.316;2023-12-22T01:44:35;3.03;;;2.28;;
65636;SDS011;52327;42.622;23.316;2023-12-22T01:47:16;3.45;;;1.85;;
65636;SDS011;52327;42.622;23.316;2023-12-22T01:49:46;3.88;;;2.10;;
65636;SDS011;52327;42.622;23.316;2023-12-22T01:52:21;4.38;;;2.15;;
65636;SDS011;52327;42.622;23.316;2023-12-22T01:55:14;5.70;;;2.08;;
65636;SDS011;52327;42.622;23.316;2023-12-22T01:58:14;2.60;;;2.40;;
65636;SDS011;52327;42.622;23.316;2023-12-22T02:00:52;3.33;;;2.00;;
65636;SDS011;52327;42.622;23.316;2023-12-22T02:03:19;2.15;;;1.70;;
65636;SDS011;52327;42.622;23.316;2023-12-22T02:05:53;1.35;;;1.25;;
65636;SDS011;52327;42.622;23.316;2023-12-22T02:08:37;0.98;;;0.93;;
65636;SDS011;52327;42.622;23.316;2023-12-22T02:11:36;0.10;;;0.10;;
65636;SDS011;52327;42.622;23.316;2023-12-22T02:14:10;1.52;;;1.42;;
65636;SDS011;52327;42.622;23.316;2023-12-22T02:16:46;1.17;;;1.17;;
65636;SDS011;52327;42.622;23.316;2023-12-22T02:22:11;4.93;;;1.63;;
65636;SDS011;52327;42.622;23.316;2023-12-22T02:24:43;1.98;;;1.45;;
65636;SDS011;52327;42.622;23.316;2023-12-22T02:30:22;1.00;;;1.00;;
65636;SDS011;52327;42.622;23.316;2023-12-22T02:32:52;2.53;;;2.33;;
65636;SDS011;52327;42.622;23.316;2023-12-22T02:35:36;1.08;;;1.08;;
65636;SDS011;52327;42.622;23.316;2023-12-22T02:38:04;2.38;;;2.17;;
65636;SDS011;52327;42.622;23.316;2023-12-22T02:40:31;1.50;;;1.38;;
65636;SDS011;52327;42.622;23.316;2023-12-22T02:43:11;4.68;;;1.95;;
65636;SDS011;52327;42.622;23.316;2023-12-22T02:45:40;2.83;;;1.90;;
65636;SDS011;52327;42.622;23.316;2023-12-22T02:48:15;2.03;;;0.98;;
65636;SDS011;52327;42.622;23.316;2023-12-22T02:50:41;2.78;;;1.80;;
65636;SDS011;52327;42.622;23.316;2023-12-22T02:53:06;1.48;;;1.35;;
65636;SDS011;52327;42.622;23.316;2023-12-22T02:55:35;4.03;;;2.33;;
65636;SDS011;52327;42.622;23.316;2023-12-22T02:58:01;3.70;;;1.17;;
65636;SDS011;52327;42.622;23.316;2023-12-22T03:00:56;2.83;;;2.08;;
65636;SDS011;52327;42.622;23.316;2023-12-22T03:03:24;3.38;;;2.60;;
65636;SDS011;52327;42.622;23.316;2023-12-22T03:06:02;1.95;;;1.38;;
65636;SDS011;52327;42.622;23.316;2023-12-22T03:08:36;2.50;;;1.70;;
65636;SDS011;52327;42.622;23.316;2023-12-22T03:11:04;4.65;;;2.75;;
65636;SDS011;52327;42.622;23.316;2023-12-22T03:13:30;1.27;;;1.17;;
65636;SDS011;52327;42.622;23.316;2023-12-22T03:16:08;0.30;;;0.30;;
65636;SDS011;52327;42.622;23.316;2023-12-22T03:18:37;1.50;;;1.40;;
65636;SDS011;52327;42.622;23.316;2023-12-22T03:21:04;1.15;;;1.10;;
65636;SDS011;52327;42.622;23.316;2023-12-22T03:23:35;2.15;;;2.03;;
65636;SDS011;52327;42.622;23.316;2023-12-22T03:26:22;2.47;;;2.25;;
65636;SDS011;52327;42.622;23.316;2023-12-22T03:28:48;1.60;;;1.23;;
65636;SDS011;52327;42.622;23.316;2023-12-22T03:31:25;1.50;;;1.40;;
65636;SDS011;52327;42.622;23.316;2023-12-22T03:33:50;1.05;;;1.02;;
65636;SDS011;52327;42.622;23.316;2023-12-22T03:36:16;5.55;;;2.85;;
65636;SDS011;52327;42.622;23.316;2023-12-22T03:38:41;1.20;;;1.20;;
65636;SDS011;52327;42.622;23.316;2023-12-22T03:41:07;0.88;;;0.88;;
65636;SDS011;52327;42.622;23.316;2023-12-22T03:43:32;2.15;;;1.95;;
65636;SDS011;52327;42.622;23.316;2023-12-22T03:45:59;1.80;;;1.67;;
65636;SDS011;52327;42.622;23.316;2023-12-22T03:48:24;3.15;;;2.88;;
65636;SDS011;52327;42.622;23.316;2023-12-22T03:50:50;3.40;;;2.78;;
65636;SDS011;52327;42.622;23.316;2023-12-22T03:53:15;2.22;;;1.55;;
65636;SDS011;52327;42.622;23.316;2023-12-22T03:55:41;2.95;;;1.73;;
65636;SDS011;52327;42.622;23.316;2023-12-22T03:58:06;2.03;;;1.92;;
65636;SDS011;52327;42.622;23.316;2023-12-22T04:00:32;4.78;;;2.03;;
65636;SDS011;52327;42.622;23.316;2023-12-22T04:02:58;2.80;;;2.15;;
65636;SDS011;52327;42.622;23.316;2023-12-22T04:05:24;2.90;;;2.53;;
65636;SDS011;52327;42.622;23.316;2023-12-22T04:07:52;1.00;;;1.00;;
65636;SDS011;52327;42.622;23.316;2023-12-22T04:10:17;3.53;;;2.65;;
65636;SDS011;52327;42.622;23.316;2023-12-22T04:12:43;4.93;;;3.10;;
65636;SDS011;52327;42.622;23.316;2023-12-22T04:15:12;1.58;;;1.42;;
65636;SDS011;52327;42.622;23.316;2023-12-22T04:17:38;4.07;;;2.42;;
65636;SDS011;52327;42.622;23.316;2023-12-22T04:20:04;2.63;;;2.13;;
65636;SDS011;52327;42.622;23.316;2023-12-22T04:22:30;1.80;;;1.70;;
65636;SDS011;52327;42.622;23.316;2023-12-22T04:24:56;3.75;;;1.38;;
65636;SDS011;52327;42.622;23.316;2023-12-22T04:27:21;1.42;;;1.05;;
65636;SDS011;52327;42.622;23.316;2023-12-22T04:29:47;1.17;;;1.10;;
65636;SDS011;52327;42.622;23.316;2023-12-22T04:32:12;1.08;;;1.08;;
65636;SDS011;52327;42.622;23.316;2023-12-22T04:34:38;2.60;;;2.40;;
65636;SDS011;52327;42.622;23.316;2023-12-22T04:37:03;1.45;;;1.27;;
65636;SDS011;52327;42.622;23.316;2023-12-22T04:39:29;8.07;;;1.73;;
65636;SDS011;52327;42.622;23.316;2023-12-22T04:41:54;2.03;;;1.77;;
65636;SDS011;52327;42.622;23.316;2023-12-22T04:44:20;1.70;;;1.60;;
65636;SDS011;52327;42.622;23.316;2023-12-22T04:46:45;3.28;;;2.20;;
65636;SDS011;52327;42.622;23.316;2023-12-22T04:49:11;2.45;;;1.90;;
65636;SDS011;52327;42.622;23.316;2023-12-22T04:51:36;3.30;;;2.42;;
65636;SDS011;52327;42.622;23.316;2023-12-22T04:54:04;1.08;;;0.90;;
65636;SDS011;52327;42.622;23.316;2023-12-22T04:56:30;5.43;;;2.08;;
65636;SDS011;52327;42.622;23.316;2023-12-22T04:58:55;4.38;;;2.22;;
65636;SDS011;52327;42.622;23.316;2023-12-22T05:01:20;1.92;;;1.80;;
65636;SDS011;52327;42.622;23.316;2023-12-22T05:03:46;1.95;;;1.27;;
65636;SDS011;52327;42.622;23.316;2023-12-22T05:06:11;2.40;;;2.08;;
65636;SDS011;52327;42.622;23.316;2023-12-22T05:08:37;1.33;;;1.23;;
65636;SDS011;52327;42.622;23.316;2023-12-22T05:11:02;4.35;;;3.10;;
65636;SDS011;52327;42.622;23.316;2023-12-22T05:13:28;2.03;;;1.58;;
65636;SDS011;52327;42.622;23.316;2023-12-22T05:15:54;5.15;;;2.35;;
65636;SDS011;52327;42.622;23.316;2023-12-22T05:18:20;3.05;;;2.28;;
65636;SDS011;52327;42.622;23.316;2023-12-22T05:20:47;2.97;;;1.67;;
65636;SDS011;52327;42.622;23.316;2023-12-22T05:23:13;2.80;;;2.55;;
65636;SDS011;52327;42.622;23.316;2023-12-22T05:25:38;2.30;;;2.08;;
65636;SDS011;52327;42.622;23.316;2023-12-22T05:28:05;4.40;;;2.80;;
65636;SDS011;52327;42.622;23.316;2023-12-22T05:30:32;3.22;;;2.03;;
65636;SDS011;52327;42.622;23.316;2023-12-22T05:32:57;2.60;;;1.80;;
65636;SDS011;52327;42.622;23.316;2023-12-22T05:35:23;1.83;;;1.63;;
65636;SDS011;52327;42.622;23.316;2023-12-22T05:37:48;4.97;;;2.42;;
65636;SDS011;52327;42.622;23.316;2023-12-22T05:40:14;3.35;;;3.00;;
65636;SDS011;52327;42.622;23.316;2023-12-22T05:42:39;4.32;;;2.20;;
65636;SDS011;52327;42.622;23.316;2023-12-22T05:45:05;3.90;;;2.53;;
65636;SDS011;52327;42.622;23.316;2023-12-22T05:47:32;2.45;;;2.25;;
65636;SDS011;52327;42.622;23.316;2023-12-22T05:49:57;4.43;;;2.53;;
65636;SDS011;52327;42.622;23.316;2023-12-22T05:52:23;1.38;;;1.27;;
65636;SDS011;52327;42.622;23.316;2023-12-22T05:54:49;3.10;;;2.72;;
65636;SDS011;52327;42.622;23.316;2023-12-22T05:57:14;3.03;;;2.72;;
65636;SDS011;52327;42.622;23.316;2023-12-22T05:59:40;1.33;;;1.25;;
65636;SDS011;52327;42.622;23.316;2023-12-22T06:02:05;1.25;;;1.15;;
65636;SDS011;52327;42.622;23.316;2023-12-22T06:04:31;2.38;;;2.15;;
65636;SDS011;52327;42.622;23.316;2023-12-22T06:07:01;2.53;;;1.52;;
65636;SDS011;52327;42.622;23.316;2023-12-22T06:09:35;5.88;;;2.25;;
65636;SDS011;52327;42.622;23.316;2023-12-22T06:12:00;1.58;;;1.48;;
65636;SDS011;52327;42.622;23.316;2023-12-22T06:14:25;4.00;;;2.55;;
65636;SDS011;52327;42.622;23.316;2023-12-22T06:16:51;1.88;;;1.45;;
65636;SDS011;52327;42.622;23.316;2023-12-22T06:19:18;2.75;;;2.35;;
65636;SDS011;52327;42.622;23.316;2023-12-22T06:21:44;2.58;;;2.38;;
65636;SDS011;52327;42.622;23.316;2023-12-22T06:24:09;3.63;;;2.17;;
65636;SDS011;52327;42.622;23.316;2023-12-22T06:26:34;4.68;;;3.17;;
65636;SDS011;52327;42.622;23.316;2023-12-22T06:29:00;1.88;;;1.80;;
65636;SDS011;52327;42.622;23.316;2023-12-22T06:31:25;6.80;;;2.53;;
65636;SDS011;52327;42.622;23.316;2023-12-22T06:33:51;1.85;;;1.75;;
65636;SDS011;52327;42.622;23.316;2023-12-22T06:36:20;2.55;;;1.95;;
65636;SDS011;52327;42.622;23.316;2023-12-22T06:38:52;2.97;;;2.20;;
65636;SDS011;52327;42.622;23.316;2023-12-22T06:41:22;1.63;;;1.52;;
65636;SDS011;52327;42.622;23.316;2023-12-22T06:43:52;2.13;;;1.42;;
65636;SDS011;52327;42.622;23.316;2023-12-22T06:46:18;2.08;;;1.60;;
65636;SDS011;52327;42.622;23.316;2023-12-22T06:48:44;2.22;;;2.00;;
65636;SDS011;52327;42.622;23.316;2023-12-22T06:53:48;5.57;;;1.88;;
65636;SDS011;52327;42.622;23.316;2023-12-22T06:56:18;5.63;;;2.78;;
65636;SDS011;52327;42.622;23.316;2023-12-22T06:58:50;2.65;;;1.45;;
65636;SDS011;52327;42.622;23.316;2023-12-22T07:01:19;3.45;;;2.95;;
65636;SDS011;52327;42.622;23.316;2023-12-22T07:03:58;1.02;;;0.95;;
65636;SDS011;52327;42.622;23.316;2023-12-22T07:06:27;2.08;;;1.90;;
65636;SDS011;52327;42.622;23.316;2023-12-22T07:11:47;4.68;;;2.22;;
65636;SDS011;52327;42.622;23.316;2023-12-22T07:14:15;2.30;;;1.95;;
65636;SDS011;52327;42.622;23.316;2023-12-22T07:16:40;2.05;;;1.88;;
65636;SDS011;52327;42.622;23.316;2023-12-22T07:19:07;2.80;;;2.00;;
65636;SDS011;52327;42.622;23.316;2023-12-22T07:21:32;2.88;;;2.50;;
65636;SDS011;52327;42.622;23.316;2023-12-22T07:23:58;3.40;;;2.10;;
65636;SDS011;52327;42.622;23.316;2023-12-22T07:26:23;2.17;;;1.98;;
65636;SDS011;52327;42.622;23.316;2023-12-22T07:28:49;3.03;;;2.72;;
65636;SDS011;52327;42.622;23.316;2023-12-22T07:31:15;4.80;;;4.15;;
65636;SDS011;52327;42.622;23.316;2023-12-22T07:33:40;3.40;;;3.10;;
65636;SDS011;52327;42.622;23.316;2023-12-22T07:36:06;5.50;;;3.65;;
65636;SDS011;52327;42.622;23.316;2023-12-22T07:38:32;4.97;;;3.13;;
65636;SDS011;52327;42.622;23.316;2023-12-22T07:40:57;4.05;;;3.25;;
65636;SDS011;52327;42.622;23.316;2023-12-22T07:43:23;2.22;;;2.03;;
65636;SDS011;52327;42.622;23.316;2023-12-22T07:45:49;5.38;;;3.65;;
65636;SDS011;52327;42.622;23.316;2023-12-22T07:48:15;2.90;;;2.47;;
65636;SDS011;52327;42.622;23.316;2023-12-22T07:50:41;3.65;;;2.70;;
65636;SDS011;52327;42.622;23.316;2023-12-22T07:53:07;2.47;;;2.28;;
65636;SDS011;52327;42.622;23.316;2023-12-22T07:55:33;2.67;;;2.17;;
65636;SDS011;52327;42.622;23.316;2023-12-22T07:57:59;4.18;;;1.77;;
65636;SDS011;52327;42.622;23.316;2023-12-22T08:00:24;3.05;;;2.45;;
65636;SDS011;52327;42.622;23.316;2023-12-22T08:02:50;10.10;;;4.88;;
65636;SDS011;52327;42.622;23.316;2023-12-22T08:05:17;4.18;;;2.70;;
65636;SDS011;52327;42.622;23.316;2023-12-22T08:07:43;2.72;;;2.47;;
65636;SDS011;52327;42.622;23.316;2023-12-22T08:10:09;4.03;;;2.45;;
65636;SDS011;52327;42.622;23.316;2023-12-22T08:12:35;2.45;;;1.95;;
65636;SDS011;52327;42.622;23.316;2023-12-22T08:15:00;3.17;;;2.55;;
65636;SDS011;52327;42.622;23.316;2023-12-22T08:17:26;1.90;;;1.77;;
65636;SDS011;52327;42.622;23.316;2023-12-22T08:19:52;3.10;;;1.58;;
65636;SDS011;52327;42.622;23.316;2023-12-22T08:22:17;2.22;;;2.05;;
65636;SDS011;52327;42.622;23.316;2023-12-22T08:24:43;5.10;;;3.10;;
65636;SDS011;52327;42.622;23.316;2023-12-22T08:27:08;1.45;;;1.35;;
65636;SDS011;52327;42.622;23.316;2023-12-22T08:29:34;2.70;;;2.50;;
65636;SDS011;52327;42.622;23.316;2023-12-22T08:32:00;2.72;;;2.50;;
65636;SDS011;52327;42.622;23.316;2023-12-22T08:34:26;2.75;;;2.55;;
65636;SDS011;52327;42.622;23.316;2023-12-22T08:36:51;3.15;;;2.70;;
65636;SDS011;52327;42.622;23.316;2023-12-22T08:39:17;1.77;;;1.63;;
65636;SDS011;52327;42.622;23.316;2023-12-22T08:41:42;2.92;;;2.00;;
65636;SDS011;52327;42.622;23.316;2023-12-22T08:44:08;2.20;;;1.98;;
65636;SDS011;52327;42.622;23.316;2023-12-22T08:46:34;2.67;;;1.88;;
65636;SDS011;52327;42.622;23.316;2023-12-22T08:48:59;2.85;;;2.53;;
65636;SDS011;52327;42.622;23.316;2023-12-22T08:51:25;5.53;;;2.88;;
65636;SDS011;52327;42.622;23.316;2023-12-22T08:53:51;3.40;;;3.10;;
65636;SDS011;52327;42.622;23.316;2023-12-22T08:56:19;3.83;;;3.50;;
65636;SDS011;52327;42.622;23.316;2023-12-22T08:58:46;9.32;;;5.50;;
65636;SDS011;52327;42.622;23.316;2023-12-22T09:01:15;4.63;;;3.65;;
65636;SDS011;52327;42.622;23.316;2023-12-22T09:03:41;6.13;;;4.70;;
65636;SDS011;52327;42.622;23.316;2023-12-22T09:06:10;7.95;;;3.70;;
65636;SDS011;52327;42.622;23.316;2023-12-22T09:08:38;6.93;;;4.93;;
65636;SDS011;52327;42.622;23.316;2023-12-22T09:11:03;4.72;;;3.72;;
65636;SDS011;52327;42.622;23.316;2023-12-22T09:13:29;6.00;;;3.33;;
65636;SDS011;52327;42.622;23.316;2023-12-22T09:15:56;11.98;;;4.05;;
65636;SDS011;52327;42.622;23.316;2023-12-22T09:18:22;4.18;;;3.78;;
65636;SDS011;52327;42.622;23.316;2023-12-22T09:20:48;5.38;;;4.30;;
65636;SDS011;52327;42.622;23.316;2023-12-22T09:23:13;4.72;;;3.38;;
65636;SDS011;52327;42.622;23.316;2023-12-22T09:25:39;4.50;;;3.63;;
65636;SDS011;52327;42.622;23.316;2023-12-22T09:28:05;5.13;;;3.33;;
65636;SDS011;52327;42.622;23.316;2023-12-22T09:30:31;4.65;;;2.95;;
65636;SDS011;52327;42.622;23.316;2023-12-22T09:32:56;4.15;;;3.25;;
65636;SDS011;52327;42.622;23.316;2023-12-22T09:35:22;6.75;;;3.35;;
65636;SDS011;52327;42.622;23.316;2023-12-22T09:37:49;4.95;;;3.33;;
65636;SDS011;52327;42.622;23.316;2023-12-22T09:40:15;5.18;;;3.65;;
65636;SDS011;52327;42.622;23.316;2023-12-22T09:42:40;4.38;;;3.40;;
65636;SDS011;52327;42.622;23.316;2023-12-22T09:45:07;5.00;;;4.03;;
65636;SDS011;52327;42.622;23.316;2023-12-22T09:47:35;6.13;;;3.28;;
65636;SDS011;52327;42.622;23.316;2023-12-22T09:50:02;9.63;;;5.15;;
65636;SDS011;52327;42.622;23.316;2023-12-22T09:52:30;6.25;;;3.30;;
65636;SDS011;52327;42.622;23.316;2023-12-22T09:54:58;5.95;;;4.05;;
65636;SDS011;52327;42.622;23.316;2023-12-22T09:57:23;3.28;;;2.97;;
65636;SDS011;52327;42.622;23.316;2023-12-22T09:59:51;3.90;;;3.33;;
65636;SDS011;52327;42.622;23.316;2023-12-22T10:02:18;7.55;;;5.30;;
65636;SDS011;52327;42.622;23.316;2023-12-22T10:04:43;7.75;;;3.95;;
65636;SDS011;52327;42.622;23.316;2023-12-22T10:07:09;7.18;;;4.93;;
65636;SDS011;52327;42.622;23.316;2023-12-22T10:09:38;6.10;;;4.22;;
65636;SDS011;52327;42.622;23.316;2023-12-22T10:12:05;7.13;;;5.05;;
65636;SDS011;52327;42.622;23.316;2023-12-22T10:14:32;6.15;;;5.07;;
65636;SDS011;52327;42.622;23.316;2023-12-22T10:17:01;13.75;;;4.32;;
65636;SDS011;52327;42.622;23.316;2023-12-22T10:19:29;8.40;;;4.88;;
65636;SDS011;52327;42.622;23.316;2023-12-22T10:21:54;5.15;;;3.45;;
65636;SDS011;52327;42.622;23.316;2023-12-22T10:24:36;5.97;;;5.18;;
65636;SDS011;52327;42.622;23.316;2023-12-22T10:27:09;10.27;;;6.38;;
65636;SDS011;52327;42.622;23.316;2023-12-22T10:29:36;4.03;;;3.63;;
65636;SDS011;52327;42.622;23.316;2023-12-22T10:32:02;6.15;;;5.05;;
65636;SDS011;52327;42.622;23.316;2023-12-22T10:34:29;6.75;;;4.93;;
65636;SDS011;52327;42.622;23.316;2023-12-22T10:36:55;4.47;;;3.38;;
65636;SDS011;52327;42.622;23.316;2023-12-22T10:39:20;8.30;;;5.28;;
65636;SDS011;52327;42.622;23.316;2023-12-22T10:41:49;6.35;;;4.25;;
65636;SDS011;52327;42.622;23.316;2023-12-22T10:44:14;2.92;;;2.53;;
65636;SDS011;52327;42.622;23.316;2023-12-22T10:46:42;4.70;;;3.65;;
65636;SDS011;52327;42.622;23.316;2023-12-22T10:49:08;7.43;;;4.95;;
65636;SDS011;52327;42.622;23.316;2023-12-22T10:51:36;9.02;;;4.88;;
65636;SDS011;52327;42.622;23.316;2023-12-22T10:54:02;6.63;;;4.25;;
65636;SDS011;52327;42.622;23.316;2023-12-22T10:56:29;6.90;;;4.43;;
65636;SDS011;52327;42.622;23.316;2023-12-22T10:58:55;5.75;;;3.60;;
65636;SDS011;52327;42.622;23.316;2023-12-22T11:01:20;13.27;;;4.20;;
65636;SDS011;52327;42.622;23.316;2023-12-22T11:03:47;6.35;;;4.18;;
65636;SDS011;52327;42.622;23.316;2023-12-22T11:06:15;6.18;;;4.97;;
65636;SDS011;52327;42.622;23.316;2023-12-22T11:08:42;6.10;;;4.30;;
65636;SDS011;52327;42.622;23.316;2023-12-22T11:14:07;5.90;;;4.10;;
65636;SDS011;52327;42.622;23.316;2023-12-22T11:16:33;4.93;;;4.15;;
65636;SDS011;52327;42.622;23.316;2023-12-22T11:19:02;8.77;;;4.57;;
65636;SDS011;52327;42.622;23.316;2023-12-22T11:21:31;1.02;;;1.02;;
65636;SDS011;52327;42.622;23.316;2023-12-22T11:23:57;1.30;;;1.20;;
65636;SDS011;52327;42.622;23.316;2023-12-22T11:26:23;0.45;;;0.45;;
65636;SDS011;52327;42.622;23.316;2023-12-22T11:28:50;3.65;;;1.33;;
65636;SDS011;52327;42.622;23.316;2023-12-22T11:31:16;2.33;;;1.02;;
65636;SDS011;52327;42.622;23.316;2023-12-22T11:33:49;1.75;;;1.10;;
65636;SDS011;52327;42.622;23.316;2023-12-22T11:36:16;0.50;;;0.40;;
65636;SDS011;52327;42.622;23.316;2023-12-22T11:38:42;0.32;;;0.32;;
65636;SDS011;52327;42.622;23.316;2023-12-22T11:41:11;1.85;;;0.95;;
65636;SDS011;52327;42.622;23.316;2023-12-22T11:43:40;0.63;;;0.63;;
65636;SDS011;52327;42.622;23.316;2023-12-22T11:46:07;0.57;;;0.55;;
65636;SDS011;52327;42.622;23.316;2023-12-22T11:48:33;0.10;;;0.10;;
65636;SDS011;52327;42.622;23.316;2023-12-22T11:50:59;0.63;;;0.63;;
65636;SDS011;52327;42.622;23.316;2023-12-22T11:53:25;0.30;;;0.30;;
65636;SDS011;52327;42.622;23.316;2023-12-22T11:56:07;0.30;;;0.30;;
65636;SDS011;52327;42.622;23.316;2023-12-22T11:58:43;0.73;;;0.73;;
65636;SDS011;52327;42.622;23.316;2023-12-22T12:01:16;1.08;;;0.38;;
65636;SDS011;52327;42.622;23.316;2023-12-22T12:03:49;0.40;;;0.40;;
65636;SDS011;52327;42.622;23.316;2023-12-22T12:06:21;0.95;;;0.68;;
65636;SDS011;52327;42.622;23.316;2023-12-22T12:08:55;0.30;;;0.30;;
65636;SDS011;52327;42.622;23.316;2023-12-22T12:14:19;0.47;;;0.40;;
65636;SDS011;52327;42.622;23.316;2023-12-22T12:16:48;0.40;;;0.40;;
65636;SDS011;52327;42.622;23.316;2023-12-22T12:19:14;0.47;;;0.40;;
65636;SDS011;52327;42.622;23.316;2023-12-22T12:21:43;0.40;;;0.40;;
65636;SDS011;52327;42.622;23.316;2023-12-22T12:24:10;0.30;;;0.30;;
65636;SDS011;52327;42.622;23.316;2023-12-22T12:26:35;0.40;;;0.40;;
65636;SDS011;52327;42.622;23.316;2023-12-22T12:29:01;0.40;;;0.35;;
65636;SDS011;52327;42.622;23.316;2023-12-22T12:31:37;0.30;;;0.30;;
65636;SDS011;52327;42.622;23.316;2023-12-22T12:34:04;1.17;;;0.98;;
65636;SDS011;52327;42.622;23.316;2023-12-22T12:36:30;0.52;;;0.47;;
65636;SDS011;52327;42.622;23.316;2023-12-22T12:39:01;0.30;;;0.30;;
65636;SDS011;52327;42.622;23.316;2023-12-22T12:41:40;3.65;;;0.75;;
65636;SDS011;52327;42.622;23.316;2023-12-22T12:44:06;0.20;;;0.20;;
65636;SDS011;52327;42.622;23.316;2023-12-22T12:49:06;0.25;;;0.25;;
65636;SDS011;52327;42.622;23.316;2023-12-22T12:51:41;0.10;;;0.10;;
65636;SDS011;52327;42.622;23.316;2023-12-22T12:54:09;0.40;;;0.40;;
65636;SDS011;52327;42.622;23.316;2023-12-22T12:56:36;0.10;;;0.10;;
65636;SDS011;52327;42.622;23.316;2023-12-22T12:59:06;0.70;;;0.70;;
65636;SDS011;52327;42.622;23.316;2023-12-22T13:01:36;0.20;;;0.20;;
65636;SDS011;52327;42.622;23.316;2023-12-22T13:04:03;0.30;;;0.30;;
65636;SDS011;52327;42.622;23.316;2023-12-22T13:06:29;0.28;;;0.28;;
65636;SDS011;52327;42.622;23.316;2023-12-22T13:08:54;0.52;;;0.43;;
65636;SDS011;52327;42.622;23.316;2023-12-22T13:11:20;0.40;;;0.40;;
65636;SDS011;52327;42.622;23.316;2023-12-22T13:16:18;0.38;;;0.38;;
65636;SDS011;52327;42.622;23.316;2023-12-22T13:21:10;0.20;;;0.20;;
65636;SDS011;52327;42.622;23.316;2023-12-22T13:23:36;0.73;;;0.73;;
65636;SDS011;52327;42.622;23.316;2023-12-22T13:26:04;0.10;;;0.10;;
65636;SDS011;52327;42.622;23.316;2023-12-22T13:28:29;1.30;;;0.60;;
65636;SDS011;52327;42.622;23.316;2023-12-22T13:30:55;1.27;;;0.73;;
65636;SDS011;52327;42.622;23.316;2023-12-22T13:33:21;0.75;;;0.55;;
65636;SDS011;52327;42.622;23.316;2023-12-22T13:35:47;0.57;;;0.40;;
65636;SDS011;52327;42.622;23.316;2023-12-22T13:38:13;0.20;;;0.20;;
65636;SDS011;52327;42.622;23.316;2023-12-22T13:40:39;1.13;;;0.60;;
65636;SDS011;52327;42.622;23.316;2023-12-22T13:43:09;0.30;;;0.30;;
65636;SDS011;52327;42.622;23.316;2023-12-22T13:45:34;0.20;;;0.20;;
65636;SDS011;52327;42.622;23.316;2023-12-22T13:48:00;1.88;;;0.60;;
65636;SDS011;52327;42.622;23.316;2023-12-22T13:50:26;0.38;;;0.35;;
65636;SDS011;52327;42.622;23.316;2023-12-22T13:52:51;0.30;;;0.30;;
65636;SDS011;52327;42.622;23.316;2023-12-22T13:55:17;0.28;;;0.28;;
65636;SDS011;52327;42.622;23.316;2023-12-22T13:57:44;0.63;;;0.45;;
65636;SDS011;52327;42.622;23.316;2023-12-22T14:02:44;1.67;;;0.60;;
65636;SDS011;52327;42.622;23.316;2023-12-22T14:05:16;0.50;;;0.50;;
65636;SDS011;52327;42.622;23.316;2023-12-22T14:07:45;0.85;;;0.57;;
65636;SDS011;52327;42.622;23.316;2023-12-22T14:10:14;0.70;;;0.70;;
65636;SDS011;52327;42.622;23.316;2023-12-22T14:12:39;1.23;;;0.75;;
65636;SDS011;52327;42.622;23.316;2023-12-22T14:15:06;0.60;;;0.30;;
65636;SDS011;52327;42.622;23.316;2023-12-22T14:17:32;0.28;;;0.28;;
65636;SDS011;52327;42.622;23.316;2023-12-22T14:19:57;0.20;;;0.20;;
65636;SDS011;52327;42.622;23.316;2023-12-22T14:22:23;0.55;;;0.55;;
65636;SDS011;52327;42.622;23.316;2023-12-22T14:24:49;0.45;;;0.45;;
65636;SDS011;52327;42.622;23.316;2023-12-22T14:27:14;0.30;;;0.30;;
65636;SDS011;52327;42.622;23.316;2023-12-22T14:29:42;0.50;;;0.50;;
65636;SDS011;52327;42.622;23.316;2023-12-22T14:32:08;0.28;;;0.28;;
65636;SDS011;52327;42.622;23.316;2023-12-22T14:34:34;2.83;;;0.60;;
65636;SDS011;52327;42.622;23.316;2023-12-22T14:36:59;0.43;;;0.43;;
65636;SDS011;52327;42.622;23.316;2023-12-22T14:39:25;0.30;;;0.30;;
65636;SDS011;52327;42.622;23.316;2023-12-22T14:41:51;3.33;;;2.25;;
65636;SDS011;52327;42.622;23.316;2023-12-22T14:44:17;5.40;;;2.83;;
65636;SDS011;52327;42.622;23.316;2023-12-22T14:46:42;0.40;;;0.40;;
65636;SDS011;52327;42.622;23.316;2023-12-22T14:49:08;0.85;;;0.68;;
65636;SDS011;52327;42.622;23.316;2023-12-22T14:51:37;0.38;;;0.38;;
65636;SDS011;52327;42.622;23.316;2023-12-22T14:54:06;0.40;;;0.40;;
65636;SDS011;52327;42.622;23.316;2023-12-22T14:56:32;1.52;;;0.90;;
65636;SDS011;52327;42.622;23.316;2023-12-22T14:58:57;0.95;;;0.80;;
65636;SDS011;52327;42.622;23.316;2023-12-22T15:01:23;0.32;;;0.25;;
65636;SDS011;52327;42.622;23.316;2023-12-22T15:03:49;0.25;;;0.25;;
65636;SDS011;52327;42.622;23.316;2023-12-22T15:06:15;0.40;;;0.40;;
65636;SDS011;52327;42.622;23.316;2023-12-22T15:08:40;0.63;;;0.43;;